Flight Track Log - Related Links

Times and Time Zones

All times are in EDT time to prevent confusion due to time zone crossing. See the EMD24 flight status page for this flight to view local times or setup timezone preferences in your user account.


Time Position Orientation Groundspeed Altitude Reporting Facility
EDT Latitude Longitude Course Direction KTS MPH feet Rate Location/Type
Mon 03:33:01 PM 39.5333 -104.8167 90° East 139 160 7,400  Level Denver TRACON
Mon 03:34:01 PM 39.5333 -104.7667 90° East 166 191 8,200 842 Climbing Denver TRACON
Mon 03:34:55 PM 39.5333 -104.7000 90° East 174 200 9,000 744 Climbing Denver TRACON
Mon 03:36:10 PM 39.5239 -104.6178 98° East 201 231 9,800 573 Climbing Denver Center
Mon 03:38:00 PM 39.8000 -104.5651 90° East  Level FlightAware Approximate
Mon 03:38:14 PM 39.5183 -104.4708 93° East 206 237 10,900  Level Denver Center
Mon 03:39:15 PM 39.5167 -104.3972 92° East 237 273 10,900  Level Denver Center
Mon 03:40:17 PM 39.5128 -104.2931 93° East 236 272 10,900  Level Denver Center
Mon 03:41:19 PM 39.5106 -104.2056 92° East 245 282 10,900  Level Denver Center
Mon 03:42:21 PM 39.5061 -104.1144 94° East 239 275 10,900 49 Level Denver Center
Mon 03:43:22 PM 39.5042 -104.0281 92° East 243 280 11,000 49 Climbing Denver Center
Mon 03:44:24 PM 39.5014 -103.9353 92° East 245 282 11,000 -48 Level Denver Center
Mon 03:45:26 PM 39.4967 -103.8517 94° East 239 275 10,900 -48 Descending Denver Center
Mon 03:46:28 PM 39.4903 -103.7686 96° East 235 270 10,900 732 Level Denver Center
Mon 03:47:29 PM 39.4914 -103.6953 89° East 203 234 12,400 1,117 Climbing Denver Center
Mon 03:49:00 PM 39.4849 -103.5839 94° East  Level FlightAware Approximate
Mon 03:50:35 PM 39.4833 -103.5081 94° East 175 201 15,500  Level Denver Center
Mon 03:51:36 PM 39.4811 -103.4453 93° East 176 203 16,600 683 Climbing Denver Center
Mon 03:52:38 PM 39.4775 -103.3631 93° East 191 220 16,900 145 Climbing Denver Center
Mon 03:53:40 PM 39.4728 -103.2819 94° East 222 255 16,900  Level Denver Center
Mon 03:54:41 PM 39.4669 -103.2008 95° East 226 260 16,900  Level Denver Center
Mon 03:55:43 PM 39.4631 -103.1172 93° East 233 268 16,900  Level Denver Center
Mon 03:56:00 PM 39.4534 -103.0702 94° East  Level FlightAware Approximate
Mon 03:56:44 PM 39.4583 -103.0317 94° East 237 273 16,900  Level Denver Center
Mon 03:57:46 PM 39.4547 -102.9478 93° East 236 272 16,900  Level Denver Center
Mon 03:58:48 PM 39.4506 -102.8622 94° East 238 274 16,900  Level Denver Center
Mon 03:59:49 PM 39.4483 -102.7622 92° East 234 269 16,900  Level Denver Center
Mon 04:00:51 PM 39.4431 -102.6797 95° East 232 267 16,900 98 Level Denver Center
Mon 04:01:52 PM 39.4400 -102.5964 93° East 232 267 17,100 98 Climbing Denver Center
Mon 04:02:54 PM 39.4336 -102.5161 96° East 227 261 17,100 -290 Level Denver Center
Mon 04:03:56 PM 39.4281 -102.4308 95° East 237 273 16,500 -732 Descending Denver Center
Mon 04:04:57 PM 39.4256 -102.3297 92° East 254 292 15,600 -829 Descending Denver Center
Mon 04:05:59 PM 39.4194 -102.2392 95° East 263 303 14,800 -829 Descending Denver Center
Mon 04:07:00 PM 39.4144 -102.1358 94° East 258 297 13,900 -927 Descending Denver Center
Mon 04:08:02 PM 39.4089 -102.0425 94° East 267 307 12,900 -1,016 Descending Denver Center
Mon 04:09:04 PM 39.4022 -101.9517 95° East 267 307 11,800 -1,463 Descending Denver Center
Mon 04:10:05 PM 39.3900 -101.8472 99° East 266 306 9,900 -1,707 Descending Denver Center
Mon 04:11:07 PM 39.3722 -101.7611 105° East 263 303 8,300 -1,024 Descending Denver Center
Mon 04:12:08 PM 39.3289 -101.6906 128° Southeast 253 291 7,800 -492 Descending Denver Center
Mon 04:14:00 PM 39.3667 -101.6833 North  Level FlightAware Approximate

Login

Don't have an account? Register now (free) for customized features, flight alerts, and more!